createdAt,value
2022-12-08T00:01:07.525Z,2.08
2022-12-08T00:03:38.147Z,2.28
2022-12-08T00:06:31.823Z,2.15
2022-12-08T00:09:21.607Z,2.22
2022-12-08T00:11:56.186Z,2.00
2022-12-08T00:14:28.636Z,2.15
2022-12-08T00:16:59.574Z,1.90
2022-12-08T00:19:30.055Z,2.05
2022-12-08T00:22:00.615Z,2.50
2022-12-08T00:24:35.009Z,1.80
2022-12-08T00:27:07.238Z,1.98
2022-12-08T00:29:37.225Z,3.05
2022-12-08T00:32:08.453Z,2.05
2022-12-08T00:34:38.525Z,2.28
2022-12-08T00:37:08.875Z,1.95
2022-12-08T00:39:38.875Z,1.80
2022-12-08T00:42:13.899Z,2.58
2022-12-08T00:44:44.767Z,3.67
2022-12-08T00:47:18.726Z,2.15
2022-12-08T00:49:52.333Z,2.25
2022-12-08T00:52:22.957Z,1.80
2022-12-08T00:54:52.946Z,1.75
2022-12-08T00:57:24.806Z,1.98
2022-12-08T00:59:54.861Z,1.83
2022-12-08T01:02:25.175Z,2.25
2022-12-08T01:04:55.165Z,1.65
2022-12-08T01:07:25.592Z,2.10
2022-12-08T01:09:55.465Z,1.90
2022-12-08T01:12:27.444Z,1.77
2022-12-08T01:17:34.115Z,1.80
2022-12-08T01:20:04.311Z,2.08
2022-12-08T01:22:36.718Z,2.38
2022-12-08T01:25:07.139Z,1.70
2022-12-08T01:27:39.004Z,1.88
2022-12-08T01:30:10.226Z,1.88
2022-12-08T01:35:11.066Z,1.60
2022-12-08T01:37:41.376Z,1.50
2022-12-08T01:40:12.029Z,2.72
2022-12-08T01:42:43.789Z,1.48
2022-12-08T01:45:23.408Z,1.55
2022-12-08T01:47:58.096Z,1.55
2022-12-08T01:50:29.586Z,1.63
2022-12-08T01:53:03.769Z,1.70
2022-12-08T01:55:38.598Z,1.60
2022-12-08T01:58:17.660Z,1.75
2022-12-08T02:00:49.176Z,1.80
2022-12-08T02:03:26.051Z,1.77
2022-12-08T02:05:56.428Z,1.70
2022-12-08T02:08:27.669Z,1.33
2022-12-08T02:10:57.701Z,1.70
2022-12-08T02:13:29.669Z,1.70
2022-12-08T02:19:29.187Z,1.75
2022-12-08T02:21:57.339Z,1.80
2022-12-08T02:24:35.417Z,1.90
2022-12-08T02:27:30.168Z,1.83
2022-12-08T02:30:20.169Z,1.65
2022-12-08T02:33:23.128Z,1.83
2022-12-08T02:36:01.151Z,2.38
2022-12-08T02:38:50.262Z,2.08
2022-12-08T02:41:33.690Z,2.92
2022-12-08T02:44:10.588Z,2.08
2022-12-08T02:46:47.562Z,2.30
2022-12-08T02:49:17.577Z,2.08
2022-12-08T02:51:49.469Z,3.33
2022-12-08T02:57:09.582Z,2.15
2022-12-08T02:59:54.080Z,2.53
2022-12-08T03:02:45.037Z,1.83
2022-12-08T03:05:31.637Z,2.38
2022-12-08T03:08:10.185Z,1.83
2022-12-08T03:10:46.720Z,1.65
2022-12-08T03:13:21.961Z,2.30
2022-12-08T03:15:54.600Z,1.60
2022-12-08T03:18:30.584Z,1.73
2022-12-08T03:21:02.012Z,1.75
2022-12-08T03:23:34.319Z,1.63
2022-12-08T03:26:15.360Z,1.70
2022-12-08T03:28:46.159Z,1.60
2022-12-08T03:31:19.481Z,1.52
2022-12-08T03:33:54.029Z,1.50
2022-12-08T03:36:25.260Z,1.33
2022-12-08T03:41:27.661Z,1.80
2022-12-08T03:43:59.830Z,1.70
2022-12-08T03:49:00.641Z,2.00
2022-12-08T03:51:30.691Z,2.00
2022-12-08T03:54:02.511Z,2.10
2022-12-08T03:56:34.499Z,2.15
2022-12-08T03:59:05.735Z,2.17
2022-12-08T04:01:36.276Z,1.80
2022-12-08T04:04:06.707Z,1.58
2022-12-08T04:06:36.759Z,1.52
2022-12-08T04:09:08.563Z,1.38
2022-12-08T04:11:38.620Z,1.42
2022-12-08T04:14:08.913Z,1.40
2022-12-08T04:16:40.038Z,1.20
2022-12-08T04:21:40.157Z,1.33
2022-12-08T04:24:12.089Z,1.42
2022-12-08T04:29:12.220Z,1.77
2022-12-08T04:31:42.310Z,1.42
2022-12-08T04:34:12.720Z,1.38
2022-12-08T04:36:42.698Z,1.10
2022-12-08T04:39:14.590Z,1.40
2022-12-08T04:41:44.719Z,1.35
2022-12-08T04:44:15.168Z,1.17
2022-12-08T04:46:45.330Z,2.38
2022-12-08T04:49:16.639Z,0.82
2022-12-08T04:51:46.619Z,1.17
2022-12-08T04:54:18.520Z,1.25
2022-12-08T04:56:48.520Z,1.45
2022-12-08T04:59:18.768Z,1.00
2022-12-08T05:01:49.061Z,1.20
2022-12-08T05:04:19.549Z,1.10
2022-12-08T05:06:49.628Z,1.20
2022-12-08T05:09:21.630Z,2.00
2022-12-08T05:11:51.839Z,1.17
2022-12-08T05:14:22.758Z,1.10
2022-12-08T05:16:53.027Z,1.05
2022-12-08T05:19:23.753Z,1.27
2022-12-08T05:21:53.712Z,1.58
2022-12-08T05:24:25.764Z,1.10
2022-12-08T05:29:26.952Z,1.55
2022-12-08T05:31:57.517Z,1.37
2022-12-08T05:34:28.146Z,1.20
2022-12-08T05:36:58.131Z,1.40
2022-12-08T05:39:30.231Z,1.30
2022-12-08T05:42:01.092Z,1.27
2022-12-08T05:44:31.541Z,1.55
2022-12-08T05:47:01.341Z,1.52
2022-12-08T05:49:31.684Z,1.30
2022-12-08T05:52:01.542Z,1.42
2022-12-08T05:54:33.285Z,1.50
2022-12-08T05:59:33.336Z,1.60
2022-12-08T06:02:03.390Z,2.08
2022-12-08T06:04:33.892Z,1.80
2022-12-08T06:07:03.975Z,1.75
2022-12-08T06:09:35.884Z,1.27
2022-12-08T06:12:06.035Z,1.90
2022-12-08T06:14:36.395Z,1.85
2022-12-08T06:17:06.455Z,1.98
2022-12-08T06:19:36.872Z,2.00
2022-12-08T06:22:06.712Z,1.50
2022-12-08T06:24:38.624Z,2.03
2022-12-08T06:27:08.493Z,1.90
2022-12-08T06:29:38.829Z,1.70
2022-12-08T06:32:09.195Z,2.60
2022-12-08T06:34:41.041Z,1.73
2022-12-08T06:37:10.904Z,1.55
2022-12-08T06:39:42.824Z,1.88
2022-12-08T06:45:03.361Z,1.13
2022-12-08T06:47:33.493Z,1.65
2022-12-08T06:50:04.366Z,1.58
2022-12-08T06:52:37.688Z,1.57
2022-12-08T06:55:29.097Z,1.77
2022-12-08T06:58:03.584Z,1.50
2022-12-08T07:00:33.952Z,2.00
2022-12-08T07:03:04.054Z,1.65
2022-12-08T07:05:34.482Z,1.80
2022-12-08T07:08:04.819Z,2.58
2022-12-08T07:10:37.204Z,2.10
2022-12-08T07:13:07.492Z,2.17
2022-12-08T07:15:38.075Z,1.50
2022-12-08T07:18:08.082Z,1.95
2022-12-08T07:20:38.746Z,2.17
2022-12-08T07:23:08.595Z,2.92
2022-12-08T07:25:40.643Z,1.98
2022-12-08T07:28:12.343Z,2.47
2022-12-08T07:30:42.872Z,2.03
2022-12-08T07:33:12.874Z,2.20
2022-12-08T07:35:49.013Z,2.60
2022-12-08T07:38:19.667Z,2.40
2022-12-08T07:40:51.932Z,2.38
2022-12-08T07:45:53.642Z,2.05
2022-12-08T07:48:24.247Z,2.33
2022-12-08T07:51:02.958Z,2.65
2022-12-08T07:53:33.824Z,2.72
2022-12-08T07:56:09.013Z,2.15
2022-12-08T07:58:39.309Z,2.22
2022-12-08T08:01:19.960Z,3.03
2022-12-08T08:03:50.084Z,2.70
2022-12-08T08:06:20.386Z,1.92
2022-12-08T08:08:51.296Z,2.20
2022-12-08T08:11:26.166Z,2.05
2022-12-08T08:13:56.213Z,2.13
2022-12-08T08:16:26.658Z,2.80
2022-12-08T08:18:56.796Z,2.53
2022-12-08T08:21:45.022Z,2.25
2022-12-08T08:24:16.085Z,2.40
2022-12-08T08:26:47.829Z,2.40
2022-12-08T08:29:17.977Z,2.22
2022-12-08T08:31:48.293Z,2.25
2022-12-08T08:34:18.785Z,1.92
2022-12-08T08:36:49.193Z,2.47
2022-12-08T08:39:19.338Z,2.15
2022-12-08T08:41:51.184Z,3.00
2022-12-08T08:46:51.126Z,3.10
2022-12-08T08:49:21.723Z,2.10
2022-12-08T08:51:52.812Z,2.33
2022-12-08T08:54:22.873Z,2.37
2022-12-08T08:56:55.104Z,2.90
2022-12-08T09:01:56.307Z,2.63
2022-12-08T09:04:27.128Z,2.60
2022-12-08T09:06:58.135Z,2.75
2022-12-08T09:09:29.072Z,3.30
2022-12-08T09:12:01.563Z,2.70
2022-12-08T09:14:31.569Z,3.75
2022-12-08T09:17:02.305Z,3.03
2022-12-08T09:19:32.574Z,3.97
2022-12-08T09:22:03.105Z,3.87
2022-12-08T09:24:33.533Z,3.60
2022-12-08T09:27:05.531Z,4.13
2022-12-08T09:29:36.391Z,3.92
2022-12-08T09:32:07.506Z,4.28
2022-12-08T09:34:37.674Z,4.67
2022-12-08T09:37:08.377Z,5.22
2022-12-08T09:39:38.322Z,3.97
2022-12-08T09:42:12.073Z,4.05
2022-12-08T09:44:57.654Z,3.88
2022-12-08T09:47:36.068Z,4.70
2022-12-08T09:50:14.334Z,3.92
2022-12-08T09:52:48.916Z,6.35
2022-12-08T09:55:27.097Z,4.53
2022-12-08T09:58:05.165Z,5.63
2022-12-08T10:00:35.958Z,4.60
2022-12-08T10:03:06.705Z,4.78
2022-12-08T10:05:43.412Z,4.50
2022-12-08T10:08:22.519Z,4.90
2022-12-08T10:10:58.692Z,4.35
2022-12-08T10:13:39.114Z,5.40
2022-12-08T10:16:26.609Z,5.35
2022-12-08T10:19:11.974Z,4.25
2022-12-08T10:21:42.404Z,5.28
2022-12-08T10:24:20.753Z,5.63
2022-12-08T10:26:51.771Z,5.63
2022-12-08T10:29:23.819Z,5.45
2022-12-08T10:31:53.949Z,5.95
2022-12-08T10:34:25.713Z,6.88
2022-12-08T10:36:57.560Z,6.38
2022-12-08T10:39:34.977Z,6.30
2022-12-08T10:42:35.488Z,5.63
2022-12-08T10:45:26.351Z,5.38
2022-12-08T10:48:03.479Z,5.45
2022-12-08T10:50:36.816Z,5.53
2022-12-08T10:53:15.741Z,5.45
2022-12-08T10:55:48.097Z,6.57
2022-12-08T10:58:34.121Z,6.40
2022-12-08T11:01:11.434Z,6.57
2022-12-08T11:03:48.088Z,6.22
2022-12-08T11:06:21.520Z,6.28
2022-12-08T11:08:54.419Z,6.40
2022-12-08T11:11:40.781Z,5.93
2022-12-08T11:14:17.809Z,6.47
2022-12-08T11:16:51.208Z,6.90
2022-12-08T11:19:28.139Z,5.68
2022-12-08T11:21:58.910Z,7.15
2022-12-08T11:24:36.032Z,7.05
2022-12-08T11:27:09.179Z,5.35
2022-12-08T11:29:39.399Z,5.65
2022-12-08T11:32:15.380Z,6.82
2022-12-08T11:34:48.537Z,6.80
2022-12-08T11:37:27.489Z,5.10
2022-12-08T11:40:04.898Z,5.00
2022-12-08T11:42:40.600Z,5.65
2022-12-08T11:45:19.420Z,6.53
2022-12-08T11:47:58.666Z,6.07
2022-12-08T11:50:31.849Z,6.03
2022-12-08T11:53:03.318Z,7.25
2022-12-08T11:55:45.221Z,7.07
2022-12-08T11:58:23.943Z,7.22
2022-12-08T12:00:53.909Z,10.43
2022-12-08T12:03:35.032Z,15.50
2022-12-08T12:06:54.763Z,17.13
2022-12-08T12:09:38.569Z,14.18
2022-12-08T12:12:17.506Z,11.45
2022-12-08T12:15:20.200Z,11.55
2022-12-08T12:17:54.794Z,9.05
2022-12-08T12:20:31.440Z,7.13
2022-12-08T12:23:09.175Z,7.03
2022-12-08T12:25:48.759Z,5.65
2022-12-08T12:28:19.259Z,5.28
2022-12-08T12:30:58.395Z,5.43
2022-12-08T12:33:28.958Z,4.55
2022-12-08T12:36:07.133Z,4.55
2022-12-08T12:38:56.556Z,5.85
2022-12-08T12:41:30.038Z,5.70
2022-12-08T12:44:26.646Z,5.15
2022-12-08T12:46:59.867Z,5.90
2022-12-08T12:49:54.616Z,7.32
2022-12-08T12:52:56.917Z,6.93
2022-12-08T12:55:52.769Z,7.60
2022-12-08T12:58:42.952Z,7.25
2022-12-08T13:01:51.210Z,7.95
2022-12-08T13:04:29.798Z,6.68
2022-12-08T13:07:00.684Z,7.88
2022-12-08T13:09:37.548Z,9.20
2022-12-08T13:12:15.033Z,10.57
2022-12-08T13:14:51.108Z,10.95
2022-12-08T13:17:29.512Z,10.25
2022-12-08T13:20:02.988Z,10.65
2022-12-08T13:23:11.090Z,10.10
2022-12-08T13:26:12.635Z,10.63
2022-12-08T13:29:24.276Z,11.18
2022-12-08T13:31:56.294Z,10.48
2022-12-08T13:34:36.338Z,13.18
2022-12-08T13:37:24.088Z,14.18
2022-12-08T13:39:57.359Z,16.35
2022-12-08T13:42:38.958Z,17.15
2022-12-08T13:45:48.719Z,20.77
2022-12-08T13:48:35.188Z,18.17
2022-12-08T13:53:15.840Z,15.52
2022-12-08T13:55:01.390Z,17.55
2022-12-08T13:57:11.460Z,16.25
2022-12-08T13:59:47.572Z,13.65
2022-12-08T14:02:22.668Z,14.32
2022-12-08T14:05:17.451Z,14.40
2022-12-08T14:07:45.444Z,30.08
2022-12-08T14:10:20.638Z,25.80
2022-12-08T14:12:58.337Z,22.08
2022-12-08T14:15:36.870Z,19.17
2022-12-08T14:18:24.503Z,20.70
2022-12-08T14:21:21.640Z,20.05
2022-12-08T14:23:52.103Z,18.77
2022-12-08T14:26:22.670Z,25.10
2022-12-08T14:28:54.540Z,19.88
2022-12-08T14:31:27.241Z,22.88
2022-12-08T14:33:58.640Z,20.35
2022-12-08T14:36:29.327Z,21.33
2022-12-08T14:39:00.690Z,22.05
2022-12-08T14:41:35.149Z,21.95
2022-12-08T14:44:06.160Z,28.40
2022-12-08T14:46:38.638Z,28.00
2022-12-08T14:49:29.180Z,25.42
2022-12-08T14:52:01.789Z,26.05
2022-12-08T14:54:33.319Z,29.00
2022-12-08T14:57:04.693Z,25.70
2022-12-08T14:59:39.257Z,28.88
2022-12-08T15:02:25.940Z,29.52
2022-12-08T15:05:03.617Z,28.20
2022-12-08T15:07:47.334Z,25.70
2022-12-08T15:10:29.828Z,24.90
2022-12-08T15:13:22.614Z,26.63
2022-12-08T15:15:54.505Z,25.42
2022-12-08T15:18:38.957Z,26.17
2022-12-08T15:21:13.920Z,23.00
2022-12-08T15:23:47.828Z,25.63
2022-12-08T15:26:24.665Z,25.33
2022-12-08T15:28:59.399Z,25.35
2022-12-08T15:31:33.318Z,28.02
2022-12-08T15:34:06.758Z,28.77
2022-12-08T15:36:38.420Z,29.35
2022-12-08T15:39:19.521Z,28.90
2022-12-08T15:41:50.692Z,28.80
2022-12-08T15:44:21.832Z,28.75
2022-12-08T15:46:52.164Z,29.08
2022-12-08T15:49:26.299Z,30.42
2022-12-08T15:52:08.097Z,28.13
2022-12-08T15:54:41.599Z,27.33
2022-12-08T15:57:44.176Z,28.60
2022-12-08T16:00:52.205Z,28.42
2022-12-08T16:04:09.398Z,29.80
2022-12-08T16:09:18.963Z,29.67
2022-12-08T16:12:08.942Z,31.15
2022-12-08T16:17:34.209Z,33.65
2022-12-08T16:20:06.807Z,37.83
2022-12-08T16:23:03.178Z,32.75
2022-12-08T16:28:53.002Z,32.10
2022-12-08T16:31:21.389Z,32.55
2022-12-08T16:33:53.988Z,32.42
2022-12-08T16:36:24.844Z,31.65
2022-12-08T16:38:58.708Z,30.40
2022-12-08T16:41:46.984Z,32.92
2022-12-08T16:44:17.568Z,30.45
2022-12-08T16:46:47.708Z,31.02
2022-12-08T16:49:18.077Z,31.25
2022-12-08T16:51:48.017Z,33.53
2022-12-08T16:54:19.968Z,33.47
2022-12-08T16:59:19.719Z,30.52
2022-12-08T17:01:50.419Z,33.63
2022-12-08T17:04:31.374Z,33.28
2022-12-08T17:07:02.512Z,37.67
2022-12-08T17:09:34.939Z,35.00
2022-12-08T17:12:05.507Z,35.58
2022-12-08T17:14:36.898Z,35.05
2022-12-08T17:17:07.333Z,32.88
2022-12-08T17:19:37.837Z,33.42
2022-12-08T17:22:07.867Z,36.30
2022-12-08T17:24:39.727Z,36.45
2022-12-08T17:27:09.860Z,33.63
2022-12-08T17:29:40.451Z,34.10
2022-12-08T17:32:13.970Z,37.20
2022-12-08T17:34:44.328Z,37.45
2022-12-08T17:37:14.409Z,35.97
2022-12-08T17:39:47.217Z,36.58
2022-12-08T17:44:47.588Z,38.53
2022-12-08T17:47:17.547Z,39.13
2022-12-08T17:49:48.341Z,39.08
2022-12-08T17:52:18.619Z,41.53
2022-12-08T17:54:50.668Z,39.80
2022-12-08T17:57:20.772Z,41.97
2022-12-08T17:59:51.175Z,39.95
2022-12-08T18:02:23.100Z,39.75
2022-12-08T18:04:53.530Z,43.80
2022-12-08T18:07:23.463Z,41.45
2022-12-08T18:09:55.579Z,41.15
2022-12-08T18:12:25.636Z,41.40
2022-12-08T18:14:55.969Z,47.88
2022-12-08T18:17:25.996Z,46.72
2022-12-08T18:19:56.759Z,45.22
2022-12-08T18:22:30.050Z,48.83
2022-12-08T18:25:05.641Z,44.95
2022-12-08T18:27:42.747Z,42.85
2022-12-08T18:30:18.961Z,43.75
2022-12-08T18:32:55.724Z,46.95
2022-12-08T18:35:29.451Z,51.33
2022-12-08T18:38:00.481Z,56.83
2022-12-08T18:40:33.585Z,56.88
2022-12-08T18:43:04.500Z,52.67
2022-12-08T18:45:37.254Z,75.40
2022-12-08T18:48:09.020Z,64.47
2022-12-08T18:50:43.293Z,56.88
2022-12-08T18:53:13.466Z,50.83
2022-12-08T18:55:46.984Z,53.13
2022-12-08T18:58:17.448Z,57.53
2022-12-08T19:00:49.624Z,49.58
2022-12-08T19:03:19.968Z,53.90
2022-12-08T19:05:50.468Z,50.10
2022-12-08T19:08:22.553Z,48.05
2022-12-08T19:10:56.158Z,46.88
2022-12-08T19:13:27.499Z,41.40
2022-12-08T19:15:58.291Z,46.75
2022-12-08T19:18:28.308Z,45.30
2022-12-08T19:20:59.938Z,49.72
2022-12-08T19:23:31.994Z,50.15
2022-12-08T19:26:06.306Z,52.50
2022-12-08T19:28:37.522Z,63.13
2022-12-08T19:31:11.098Z,60.97
2022-12-08T19:33:41.719Z,62.60
2022-12-08T19:36:15.077Z,64.63
2022-12-08T19:39:02.824Z,63.05
2022-12-08T19:41:52.504Z,59.40
2022-12-08T19:44:41.227Z,54.47
2022-12-08T19:47:12.269Z,52.75
2022-12-08T19:49:42.483Z,52.72
2022-12-08T19:52:12.909Z,47.67
2022-12-08T19:54:43.141Z,48.05
2022-12-08T19:57:14.988Z,46.67
2022-12-08T19:59:45.079Z,52.83
2022-12-08T20:02:15.681Z,49.17
2022-12-08T20:04:46.178Z,49.97
2022-12-08T20:07:17.095Z,49.03
2022-12-08T20:09:47.526Z,49.13
2022-12-08T20:12:19.312Z,53.42
2022-12-08T20:14:49.691Z,49.72
2022-12-08T20:17:20.178Z,39.30
2022-12-08T20:19:50.217Z,41.92
2022-12-08T20:22:20.870Z,45.30
2022-12-08T20:25:09.630Z,45.25
2022-12-08T20:27:43.019Z,44.70
2022-12-08T20:30:17.068Z,46.15
2022-12-08T20:32:48.250Z,46.45
2022-12-08T20:35:18.588Z,54.33
2022-12-08T20:37:49.149Z,56.95
2022-12-08T20:40:21.877Z,62.28
2022-12-08T20:42:54.629Z,63.28
2022-12-08T20:47:55.087Z,62.30
2022-12-08T20:50:25.547Z,54.55
2022-12-08T20:52:56.296Z,54.75
2022-12-08T20:55:26.945Z,55.15
2022-12-08T20:57:59.960Z,58.42
2022-12-08T21:00:31.642Z,59.78
2022-12-08T21:03:05.441Z,55.83
2022-12-08T21:05:39.121Z,58.50
2022-12-08T21:08:10.056Z,60.65
2022-12-08T21:10:43.788Z,56.78
2022-12-08T21:13:17.543Z,57.72
2022-12-08T21:15:49.043Z,56.53
2022-12-08T21:18:20.213Z,50.75
2022-12-08T21:20:51.558Z,52.63
2022-12-08T21:23:22.027Z,54.22
2022-12-08T21:25:52.777Z,48.83
2022-12-08T21:28:25.294Z,48.50
2022-12-08T21:30:58.071Z,48.42
2022-12-08T21:33:30.899Z,46.40
2022-12-08T21:36:08.256Z,44.70
2022-12-08T21:38:40.442Z,42.33
2022-12-08T21:41:12.844Z,46.40
2022-12-08T21:43:45.137Z,45.95
2022-12-08T21:46:21.253Z,46.67
2022-12-08T21:48:51.835Z,44.13
2022-12-08T21:51:23.439Z,45.42
2022-12-08T21:53:54.088Z,42.08
2022-12-08T21:56:24.518Z,55.72
2022-12-08T21:58:58.307Z,45.08
2022-12-08T22:01:29.029Z,40.08
2022-12-08T22:04:00.673Z,37.42
2022-12-08T22:06:31.608Z,34.47
2022-12-08T22:09:02.713Z,30.65
2022-12-08T22:11:33.352Z,31.42
2022-12-08T22:14:10.860Z,32.72
2022-12-08T22:16:44.356Z,36.63
2022-12-08T22:19:15.267Z,33.28
2022-12-08T22:21:46.500Z,37.75
2022-12-08T22:24:16.916Z,41.88
2022-12-08T22:26:47.177Z,36.33
2022-12-08T22:29:19.669Z,33.50
2022-12-08T22:31:50.718Z,35.08
2022-12-08T22:34:21.205Z,30.70
2022-12-08T22:36:51.679Z,31.42
2022-12-08T22:39:22.130Z,34.22
2022-12-08T22:41:52.728Z,30.33
2022-12-08T22:44:25.088Z,27.13
2022-12-08T22:46:55.508Z,23.33
2022-12-08T22:49:26.657Z,25.90
2022-12-08T22:51:57.361Z,24.17
2022-12-08T22:54:28.207Z,20.20
2022-12-08T22:56:58.362Z,21.58
2022-12-08T22:59:33.758Z,21.50
2022-12-08T23:02:04.106Z,20.20
2022-12-08T23:04:34.786Z,23.52
2022-12-08T23:07:05.044Z,21.70
2022-12-08T23:09:35.437Z,21.45
2022-12-08T23:12:05.842Z,22.42
2022-12-08T23:14:37.868Z,22.25
2022-12-08T23:17:08.321Z,21.92
2022-12-08T23:19:38.749Z,21.45
2022-12-08T23:22:09.578Z,24.92
2022-12-08T23:24:40.462Z,22.75
2022-12-08T23:27:10.669Z,21.95
2022-12-08T23:29:42.388Z,22.33
2022-12-08T23:32:12.580Z,20.67
2022-12-08T23:34:43.228Z,24.48
2022-12-08T23:37:13.431Z,26.58
2022-12-08T23:39:44.056Z,24.10
2022-12-08T23:42:14.595Z,23.00
2022-12-08T23:44:46.796Z,24.23
2022-12-08T23:47:17.157Z,25.70
2022-12-08T23:49:47.902Z,26.40
2022-12-08T23:52:17.849Z,26.42
2022-12-08T23:54:48.229Z,23.25
2022-12-08T23:57:18.264Z,22.52
2022-12-08T23:59:50.515Z,23.70
